Silver Gate, MT

10:30 PM MDT on August 30, 2014 (GMT -0600)
Yellowstone | Change Station
CLOSE
Current Station
Airport
Location: Yellowstone,
Elevation: 7835 ft
Nearby Weather Stations

Elev 7835 ft 44.54 °N, 110.42 °W | Updated 34 minutes ago

Thunderstorm
Thunderstorm
40 °F
Feels Like 40 °F
N
0
Wind Variable Wind from North
Gusts 10 mph

Today
High -- | Low -- °F
--% Chance of Precip.
Yesterday
High -- | Low -- °F
Precip. -- in
6:40 AM 8:01 PM
Waxing Crescent, 27% visible
Pressure 29.95 in
Visibility -9999.0 miles
Clouds
Dew Point 39 °F
Humidity 97%
Rainfall 0.64 in
Snow Depth 0 in , 0 in , 0 in
UV Not available.
Pollen 7.70 out of 12
Air Quality Not available.
Flu Activity Not available.
METAR KP60 310356Z AUTO 00000KT 04/04 A3011 RMK AO1 SLP142 T00440039

More Conditions Fewer Conditions

Pressure 29.95 in
Visibility -9999.0 miles
Clouds
Dew Point 39 °F
Humidity 97%
Rainfall 0.64 in
Snow Depth 0 in , 0 in , 0 in
UV Not available.
Pollen 7.70 out of 12
Air Quality Not available.
Flu Activity Not available.
METAR KP60 310356Z AUTO 00000KT 04/04 A3011 RMK AO1 SLP142 T00440039

More Conditions Fewer Conditions

10-Day Weather Forecast

Almanac

Astronomy

Aug. 30, 2014 Rise Set
Actual Time 6:40 AM MDT 8:01 PM MDT
Civil Twilight 6:09 AM MDT 8:32 PM MDT
Nautical Twilight 5:33 AM MDT 9:08 PM MDT
Astronomical Twilight 4:53 AM MDT 9:47 PM MDT
Moon 11:46 AM MDT (8/30) 10:22 PM MDT (8/30)
Length of Visible Light 14h 22m
Length of Day
13h 21m
Tomorrow will be 3m 1s shorter.
Waxing Crescent, 27% of the Moon is Illuminated
Aug 31
Waxing Crescent
Sep 2
First Quarter
Sep 8
Full
Sep 15
Last Quarter
Sep 24
New

Today's Extremes

State Highs State Lows

Community

WunderPhotos

Upload Photos

1,748,782 photos uploaded!

Nearby

Snow Depth

Station Depth Elevation
Monument Peak 0 in 8850 ft
Northeast Entrance 0 in 7350 ft
Fisher Creek 0 in 9100 ft
White Mill 2 in 8700 ft
Placer Basin 0 in 8830 ft

Earthquake Activity

City Distance Mag. Time & Date
Driggs, Idaho 98 miles 3.8 2:09 PM MDT
2014-08-30
Minimum magnitude displayed is 2.5.

Coastal Water Temperatures

Place Temperature
No Stations Reporting

Nearby Weather Stations